sensor_id;sensor_type;location;lat;lon;timestamp;P1;durP1;ratioP1;P2;durP2;ratioP2
16407;SDS011;8313;49.894;8.084;2022-12-29T00:02:08;3.67;;;2.20;;
16407;SDS011;8313;49.894;8.084;2022-12-29T00:04:34;3.07;;;1.90;;
16407;SDS011;8313;49.894;8.084;2022-12-29T00:06:59;2.77;;;2.50;;
16407;SDS011;8313;49.894;8.084;2022-12-29T00:09:26;2.50;;;2.30;;
16407;SDS011;8313;49.894;8.084;2022-12-29T00:11:52;4.00;;;2.23;;
16407;SDS011;8313;49.894;8.084;2022-12-29T00:14:17;2.40;;;2.20;;
16407;SDS011;8313;49.894;8.084;2022-12-29T00:17:03;2.30;;;1.97;;
16407;SDS011;8313;49.894;8.084;2022-12-29T00:19:29;2.60;;;2.37;;
16407;SDS011;8313;49.894;8.084;2022-12-29T00:22:13;2.60;;;2.30;;
16407;SDS011;8313;49.894;8.084;2022-12-29T00:24:58;2.00;;;1.90;;
16407;SDS011;8313;49.894;8.084;2022-12-29T00:27:34;5.50;;;2.33;;
16407;SDS011;8313;49.894;8.084;2022-12-29T00:30:20;2.40;;;2.00;;
16407;SDS011;8313;49.894;8.084;2022-12-29T00:33:12;2.37;;;2.17;;
16407;SDS011;8313;49.894;8.084;2022-12-29T00:38:36;2.90;;;1.87;;
16407;SDS011;8313;49.894;8.084;2022-12-29T00:41:24;2.37;;;2.13;;
16407;SDS011;8313;49.894;8.084;2022-12-29T00:44:10;2.57;;;2.37;;
16407;SDS011;8313;49.894;8.084;2022-12-29T00:46:37;2.60;;;2.10;;
16407;SDS011;8313;49.894;8.084;2022-12-29T00:49:07;2.40;;;2.20;;
16407;SDS011;8313;49.894;8.084;2022-12-29T00:51:54;2.37;;;1.93;;
16407;SDS011;8313;49.894;8.084;2022-12-29T00:54:21;2.07;;;1.90;;
16407;SDS011;8313;49.894;8.084;2022-12-29T00:56:47;4.07;;;1.70;;
16407;SDS011;8313;49.894;8.084;2022-12-29T00:59:16;5.30;;;2.43;;
16407;SDS011;8313;49.894;8.084;2022-12-29T01:01:42;2.83;;;2.47;;
16407;SDS011;8313;49.894;8.084;2022-12-29T01:04:09;2.37;;;2.17;;
16407;SDS011;8313;49.894;8.084;2022-12-29T01:06:36;1.90;;;1.77;;
16407;SDS011;8313;49.894;8.084;2022-12-29T01:09:03;2.50;;;1.70;;
16407;SDS011;8313;49.894;8.084;2022-12-29T01:11:49;2.83;;;2.07;;
16407;SDS011;8313;49.894;8.084;2022-12-29T01:14:15;2.37;;;1.70;;
16407;SDS011;8313;49.894;8.084;2022-12-29T01:16:41;2.50;;;2.30;;
16407;SDS011;8313;49.894;8.084;2022-12-29T01:19:08;3.80;;;1.90;;
16407;SDS011;8313;49.894;8.084;2022-12-29T01:21:33;2.83;;;2.53;;
16407;SDS011;8313;49.894;8.084;2022-12-29T01:23:59;2.20;;;2.00;;
16407;SDS011;8313;49.894;8.084;2022-12-29T01:26:25;2.30;;;1.90;;
16407;SDS011;8313;49.894;8.084;2022-12-29T01:28:51;4.23;;;2.93;;
16407;SDS011;8313;49.894;8.084;2022-12-29T01:31:17;1.90;;;1.80;;
16407;SDS011;8313;49.894;8.084;2022-12-29T01:33:43;2.47;;;1.93;;
16407;SDS011;8313;49.894;8.084;2022-12-29T01:36:10;4.17;;;2.80;;
16407;SDS011;8313;49.894;8.084;2022-12-29T01:38:38;2.27;;;2.00;;
16407;SDS011;8313;49.894;8.084;2022-12-29T01:41:05;3.00;;;2.50;;
16407;SDS011;8313;49.894;8.084;2022-12-29T01:43:42;3.43;;;2.47;;
16407;SDS011;8313;49.894;8.084;2022-12-29T01:46:15;2.10;;;1.90;;
16407;SDS011;8313;49.894;8.084;2022-12-29T01:48:49;2.50;;;1.70;;
16407;SDS011;8313;49.894;8.084;2022-12-29T01:51:43;2.43;;;2.23;;
16407;SDS011;8313;49.894;8.084;2022-12-29T01:54:21;4.47;;;2.13;;
16407;SDS011;8313;49.894;8.084;2022-12-29T01:56:53;2.43;;;2.20;;
16407;SDS011;8313;49.894;8.084;2022-12-29T01:59:22;3.80;;;2.13;;
16407;SDS011;8313;49.894;8.084;2022-12-29T02:01:53;3.17;;;2.07;;
16407;SDS011;8313;49.894;8.084;2022-12-29T02:04:19;1.73;;;1.63;;
16407;SDS011;8313;49.894;8.084;2022-12-29T02:06:57;3.50;;;1.97;;
16407;SDS011;8313;49.894;8.084;2022-12-29T02:09:33;2.33;;;1.83;;
16407;SDS011;8313;49.894;8.084;2022-12-29T02:11:58;1.53;;;1.43;;
16407;SDS011;8313;49.894;8.084;2022-12-29T02:14:25;3.17;;;2.33;;
16407;SDS011;8313;49.894;8.084;2022-12-29T02:22:34;6.70;;;1.93;;
16407;SDS011;8313;49.894;8.084;2022-12-29T02:27:58;4.60;;;2.10;;
16407;SDS011;8313;49.894;8.084;2022-12-29T02:41:19;1.50;;;1.40;;
16407;SDS011;8313;49.894;8.084;2022-12-29T02:52:40;1.50;;;1.40;;
16407;SDS011;8313;49.894;8.084;2022-12-29T02:55:25;1.53;;;1.43;;
16407;SDS011;8313;49.894;8.084;2022-12-29T03:00:46;3.17;;;1.37;;
16407;SDS011;8313;49.894;8.084;2022-12-29T03:08:50;2.80;;;1.40;;
16407;SDS011;8313;49.894;8.084;2022-12-29T03:11:19;2.53;;;1.77;;
16407;SDS011;8313;49.894;8.084;2022-12-29T03:14:14;4.90;;;2.10;;
16407;SDS011;8313;49.894;8.084;2022-12-29T03:17:20;2.70;;;1.60;;
16407;SDS011;8313;49.894;8.084;2022-12-29T03:19:56;1.90;;;1.70;;
16407;SDS011;8313;49.894;8.084;2022-12-29T03:22:28;2.03;;;1.70;;
16407;SDS011;8313;49.894;8.084;2022-12-29T03:27:44;4.80;;;1.77;;
16407;SDS011;8313;49.894;8.084;2022-12-29T03:30:12;1.93;;;1.77;;
16407;SDS011;8313;49.894;8.084;2022-12-29T03:32:41;1.70;;;1.60;;
16407;SDS011;8313;49.894;8.084;2022-12-29T03:35:14;2.53;;;2.07;;
16407;SDS011;8313;49.894;8.084;2022-12-29T03:37:43;1.90;;;1.70;;
16407;SDS011;8313;49.894;8.084;2022-12-29T03:40:16;2.77;;;2.00;;
16407;SDS011;8313;49.894;8.084;2022-12-29T03:42:46;1.70;;;1.60;;
16407;SDS011;8313;49.894;8.084;2022-12-29T03:45:13;2.10;;;1.90;;
16407;SDS011;8313;49.894;8.084;2022-12-29T03:47:38;1.63;;;1.50;;
16407;SDS011;8313;49.894;8.084;2022-12-29T03:50:05;1.83;;;1.60;;
16407;SDS011;8313;49.894;8.084;2022-12-29T03:52:38;1.80;;;1.70;;
16407;SDS011;8313;49.894;8.084;2022-12-29T03:55:05;2.53;;;2.00;;
16407;SDS011;8313;49.894;8.084;2022-12-29T03:57:31;2.33;;;2.13;;
16407;SDS011;8313;49.894;8.084;2022-12-29T04:00:00;1.53;;;1.43;;
16407;SDS011;8313;49.894;8.084;2022-12-29T04:02:29;1.97;;;1.80;;
16407;SDS011;8313;49.894;8.084;2022-12-29T04:04:55;2.13;;;1.73;;
16407;SDS011;8313;49.894;8.084;2022-12-29T04:07:22;1.83;;;1.63;;
16407;SDS011;8313;49.894;8.084;2022-12-29T04:09:51;1.63;;;1.53;;
16407;SDS011;8313;49.894;8.084;2022-12-29T04:12:20;3.60;;;3.27;;
16407;SDS011;8313;49.894;8.084;2022-12-29T04:14:46;1.43;;;1.33;;
16407;SDS011;8313;49.894;8.084;2022-12-29T04:17:12;3.60;;;2.07;;
16407;SDS011;8313;49.894;8.084;2022-12-29T04:19:39;2.40;;;1.40;;
16407;SDS011;8313;49.894;8.084;2022-12-29T04:22:05;1.90;;;1.57;;
16407;SDS011;8313;49.894;8.084;2022-12-29T04:24:31;2.03;;;1.87;;
16407;SDS011;8313;49.894;8.084;2022-12-29T04:26:57;1.37;;;1.27;;
16407;SDS011;8313;49.894;8.084;2022-12-29T04:29:43;2.10;;;1.73;;
16407;SDS011;8313;49.894;8.084;2022-12-29T04:32:23;4.40;;;1.40;;
16407;SDS011;8313;49.894;8.084;2022-12-29T04:34:51;1.77;;;1.60;;
16407;SDS011;8313;49.894;8.084;2022-12-29T04:37:18;2.80;;;2.17;;
16407;SDS011;8313;49.894;8.084;2022-12-29T04:39:44;1.50;;;1.40;;
16407;SDS011;8313;49.894;8.084;2022-12-29T04:42:10;1.87;;;1.77;;
16407;SDS011;8313;49.894;8.084;2022-12-29T04:44:36;2.40;;;1.50;;
16407;SDS011;8313;49.894;8.084;2022-12-29T04:47:20;2.60;;;1.60;;
16407;SDS011;8313;49.894;8.084;2022-12-29T04:50:12;2.00;;;1.40;;
16407;SDS011;8313;49.894;8.084;2022-12-29T04:52:52;1.57;;;1.37;;
16407;SDS011;8313;49.894;8.084;2022-12-29T04:55:18;1.77;;;1.67;;
16407;SDS011;8313;49.894;8.084;2022-12-29T04:57:44;2.90;;;1.87;;
16407;SDS011;8313;49.894;8.084;2022-12-29T05:00:13;1.43;;;1.33;;
16407;SDS011;8313;49.894;8.084;2022-12-29T05:02:39;1.60;;;1.43;;
16407;SDS011;8313;49.894;8.084;2022-12-29T05:05:05;1.63;;;1.43;;
16407;SDS011;8313;49.894;8.084;2022-12-29T05:07:33;1.60;;;1.50;;
16407;SDS011;8313;49.894;8.084;2022-12-29T05:10:00;2.87;;;1.70;;
16407;SDS011;8313;49.894;8.084;2022-12-29T05:12:28;2.47;;;1.33;;
16407;SDS011;8313;49.894;8.084;2022-12-29T05:14:58;1.40;;;1.30;;
16407;SDS011;8313;49.894;8.084;2022-12-29T05:17:24;1.33;;;1.23;;
16407;SDS011;8313;49.894;8.084;2022-12-29T05:19:51;1.43;;;1.30;;
16407;SDS011;8313;49.894;8.084;2022-12-29T05:22:17;3.83;;;1.77;;
16407;SDS011;8313;49.894;8.084;2022-12-29T05:24:43;5.50;;;1.83;;
16407;SDS011;8313;49.894;8.084;2022-12-29T05:27:09;2.47;;;1.67;;
16407;SDS011;8313;49.894;8.084;2022-12-29T05:29:57;2.40;;;1.63;;
16407;SDS011;8313;49.894;8.084;2022-12-29T05:32:23;3.40;;;1.33;;
16407;SDS011;8313;49.894;8.084;2022-12-29T05:34:50;2.10;;;1.40;;
16407;SDS011;8313;49.894;8.084;2022-12-29T05:37:17;5.13;;;1.80;;
16407;SDS011;8313;49.894;8.084;2022-12-29T05:39:43;1.40;;;1.30;;
16407;SDS011;8313;49.894;8.084;2022-12-29T05:42:08;3.00;;;1.63;;
16407;SDS011;8313;49.894;8.084;2022-12-29T05:44:46;1.77;;;1.50;;
16407;SDS011;8313;49.894;8.084;2022-12-29T05:47:44;2.87;;;1.80;;
16407;SDS011;8313;49.894;8.084;2022-12-29T05:50:42;2.37;;;1.70;;
16407;SDS011;8313;49.894;8.084;2022-12-29T05:53:11;3.17;;;1.50;;
16407;SDS011;8313;49.894;8.084;2022-12-29T05:55:38;3.17;;;2.00;;
16407;SDS011;8313;49.894;8.084;2022-12-29T05:58:03;1.73;;;1.50;;
16407;SDS011;8313;49.894;8.084;2022-12-29T06:00:30;2.20;;;1.50;;
16407;SDS011;8313;49.894;8.084;2022-12-29T06:02:57;1.73;;;1.27;;
16407;SDS011;8313;49.894;8.084;2022-12-29T06:05:23;4.13;;;2.00;;
16407;SDS011;8313;49.894;8.084;2022-12-29T06:07:48;1.50;;;1.40;;
16407;SDS011;8313;49.894;8.084;2022-12-29T06:10:16;1.70;;;1.50;;
16407;SDS011;8313;49.894;8.084;2022-12-29T06:12:46;1.60;;;1.43;;
16407;SDS011;8313;49.894;8.084;2022-12-29T06:15:13;2.40;;;1.40;;
16407;SDS011;8313;49.894;8.084;2022-12-29T06:17:40;2.80;;;2.00;;
16407;SDS011;8313;49.894;8.084;2022-12-29T06:20:06;2.17;;;1.80;;
16407;SDS011;8313;49.894;8.084;2022-12-29T06:22:32;2.00;;;1.60;;
16407;SDS011;8313;49.894;8.084;2022-12-29T06:24:59;2.80;;;1.47;;
16407;SDS011;8313;49.894;8.084;2022-12-29T06:27:26;1.60;;;1.50;;
16407;SDS011;8313;49.894;8.084;2022-12-29T06:29:52;1.87;;;1.60;;
16407;SDS011;8313;49.894;8.084;2022-12-29T06:32:18;2.10;;;1.67;;
16407;SDS011;8313;49.894;8.084;2022-12-29T06:34:48;1.67;;;1.57;;
16407;SDS011;8313;49.894;8.084;2022-12-29T06:37:14;2.13;;;1.90;;
16407;SDS011;8313;49.894;8.084;2022-12-29T06:39:40;2.10;;;1.60;;
16407;SDS011;8313;49.894;8.084;2022-12-29T06:42:09;3.80;;;2.20;;
16407;SDS011;8313;49.894;8.084;2022-12-29T06:44:54;3.97;;;1.93;;
16407;SDS011;8313;49.894;8.084;2022-12-29T06:47:23;2.53;;;1.70;;
16407;SDS011;8313;49.894;8.084;2022-12-29T06:49:49;2.00;;;1.50;;
16407;SDS011;8313;49.894;8.084;2022-12-29T06:52:15;3.07;;;2.40;;
16407;SDS011;8313;49.894;8.084;2022-12-29T06:54:40;1.60;;;1.50;;
16407;SDS011;8313;49.894;8.084;2022-12-29T06:57:06;2.70;;;1.90;;
16407;SDS011;8313;49.894;8.084;2022-12-29T06:59:32;2.73;;;1.70;;
16407;SDS011;8313;49.894;8.084;2022-12-29T07:01:58;2.07;;;1.87;;
16407;SDS011;8313;49.894;8.084;2022-12-29T07:04:23;2.90;;;2.17;;
16407;SDS011;8313;49.894;8.084;2022-12-29T07:06:49;3.70;;;2.63;;
16407;SDS011;8313;49.894;8.084;2022-12-29T07:09:15;4.10;;;2.27;;
16407;SDS011;8313;49.894;8.084;2022-12-29T07:11:40;3.00;;;2.07;;
16407;SDS011;8313;49.894;8.084;2022-12-29T07:14:06;6.83;;;2.30;;
16407;SDS011;8313;49.894;8.084;2022-12-29T07:16:32;2.63;;;1.80;;
16407;SDS011;8313;49.894;8.084;2022-12-29T07:18:59;2.10;;;2.00;;
16407;SDS011;8313;49.894;8.084;2022-12-29T07:21:24;5.97;;;3.20;;
16407;SDS011;8313;49.894;8.084;2022-12-29T07:23:50;2.70;;;2.50;;
16407;SDS011;8313;49.894;8.084;2022-12-29T07:26:16;3.37;;;3.13;;
16407;SDS011;8313;49.894;8.084;2022-12-29T07:28:43;4.70;;;4.30;;
16407;SDS011;8313;49.894;8.084;2022-12-29T07:31:16;6.77;;;5.30;;
16407;SDS011;8313;49.894;8.084;2022-12-29T07:33:43;3.50;;;2.70;;
16407;SDS011;8313;49.894;8.084;2022-12-29T07:36:10;6.80;;;3.67;;
16407;SDS011;8313;49.894;8.084;2022-12-29T07:38:36;4.90;;;4.40;;
16407;SDS011;8313;49.894;8.084;2022-12-29T07:41:02;4.90;;;4.30;;
16407;SDS011;8313;49.894;8.084;2022-12-29T07:43:28;5.10;;;3.97;;
16407;SDS011;8313;49.894;8.084;2022-12-29T07:46:13;3.90;;;3.43;;
16407;SDS011;8313;49.894;8.084;2022-12-29T07:48:39;6.33;;;4.27;;
16407;SDS011;8313;49.894;8.084;2022-12-29T07:51:05;7.07;;;6.27;;
16407;SDS011;8313;49.894;8.084;2022-12-29T07:53:31;12.97;;;6.20;;
16407;SDS011;8313;49.894;8.084;2022-12-29T07:55:57;6.87;;;6.17;;
16407;SDS011;8313;49.894;8.084;2022-12-29T07:58:22;10.53;;;6.53;;
16407;SDS011;8313;49.894;8.084;2022-12-29T08:00:52;6.10;;;4.20;;
16407;SDS011;8313;49.894;8.084;2022-12-29T08:03:21;7.93;;;3.23;;
16407;SDS011;8313;49.894;8.084;2022-12-29T08:05:48;3.67;;;2.67;;
16407;SDS011;8313;49.894;8.084;2022-12-29T08:08:14;2.70;;;2.37;;
16407;SDS011;8313;49.894;8.084;2022-12-29T08:10:40;2.80;;;2.43;;
16407;SDS011;8313;49.894;8.084;2022-12-29T08:13:05;2.87;;;2.37;;
16407;SDS011;8313;49.894;8.084;2022-12-29T08:15:31;2.90;;;2.17;;
16407;SDS011;8313;49.894;8.084;2022-12-29T08:17:57;4.10;;;3.10;;
16407;SDS011;8313;49.894;8.084;2022-12-29T08:20:22;5.23;;;3.60;;
16407;SDS011;8313;49.894;8.084;2022-12-29T08:22:48;3.83;;;2.67;;
16407;SDS011;8313;49.894;8.084;2022-12-29T08:25:15;6.07;;;3.90;;
16407;SDS011;8313;49.894;8.084;2022-12-29T08:27:41;4.63;;;4.10;;
16407;SDS011;8313;49.894;8.084;2022-12-29T08:30:07;8.23;;;3.93;;
16407;SDS011;8313;49.894;8.084;2022-12-29T08:32:33;5.33;;;3.40;;
16407;SDS011;8313;49.894;8.084;2022-12-29T08:34:59;6.00;;;2.80;;
16407;SDS011;8313;49.894;8.084;2022-12-29T08:37:25;3.50;;;2.53;;
16407;SDS011;8313;49.894;8.084;2022-12-29T08:39:51;6.20;;;3.10;;
16407;SDS011;8313;49.894;8.084;2022-12-29T08:42:17;4.53;;;2.63;;
16407;SDS011;8313;49.894;8.084;2022-12-29T08:44:42;5.17;;;2.97;;
16407;SDS011;8313;49.894;8.084;2022-12-29T08:47:09;4.00;;;2.80;;
16407;SDS011;8313;49.894;8.084;2022-12-29T08:49:36;4.37;;;3.77;;
16407;SDS011;8313;49.894;8.084;2022-12-29T08:52:02;7.43;;;3.20;;
16407;SDS011;8313;49.894;8.084;2022-12-29T08:54:28;2.83;;;2.63;;
16407;SDS011;8313;49.894;8.084;2022-12-29T08:56:54;4.30;;;3.87;;
16407;SDS011;8313;49.894;8.084;2022-12-29T08:59:23;4.17;;;3.77;;
16407;SDS011;8313;49.894;8.084;2022-12-29T09:01:49;3.47;;;3.00;;
16407;SDS011;8313;49.894;8.084;2022-12-29T09:04:15;6.00;;;3.10;;
16407;SDS011;8313;49.894;8.084;2022-12-29T09:06:40;12.57;;;6.63;;
16407;SDS011;8313;49.894;8.084;2022-12-29T09:09:06;21.13;;;10.57;;
16407;SDS011;8313;49.894;8.084;2022-12-29T09:11:32;21.37;;;13.40;;
16407;SDS011;8313;49.894;8.084;2022-12-29T09:13:58;27.27;;;16.27;;
16407;SDS011;8313;49.894;8.084;2022-12-29T09:16:24;30.07;;;17.90;;
16407;SDS011;8313;49.894;8.084;2022-12-29T09:18:50;19.30;;;11.20;;
16407;SDS011;8313;49.894;8.084;2022-12-29T09:21:15;8.83;;;6.10;;
16407;SDS011;8313;49.894;8.084;2022-12-29T09:23:41;12.73;;;5.07;;
16407;SDS011;8313;49.894;8.084;2022-12-29T09:26:07;5.87;;;4.37;;
16407;SDS011;8313;49.894;8.084;2022-12-29T09:28:34;7.47;;;5.10;;
16407;SDS011;8313;49.894;8.084;2022-12-29T09:31:00;8.93;;;5.43;;
16407;SDS011;8313;49.894;8.084;2022-12-29T09:33:26;7.90;;;5.00;;
16407;SDS011;8313;49.894;8.084;2022-12-29T09:35:53;6.93;;;5.00;;
16407;SDS011;8313;49.894;8.084;2022-12-29T09:38:20;4.13;;;3.73;;
16407;SDS011;8313;49.894;8.084;2022-12-29T09:40:54;6.40;;;3.30;;
16407;SDS011;8313;49.894;8.084;2022-12-29T09:46:18;2.90;;;2.10;;
16407;SDS011;8313;49.894;8.084;2022-12-29T09:49:01;2.93;;;2.73;;
16407;SDS011;8313;49.894;8.084;2022-12-29T09:51:50;2.13;;;1.53;;
16407;SDS011;8313;49.894;8.084;2022-12-29T09:54:23;2.00;;;1.80;;
16407;SDS011;8313;49.894;8.084;2022-12-29T09:56:49;1.50;;;1.40;;
16407;SDS011;8313;49.894;8.084;2022-12-29T09:59:19;1.73;;;1.63;;
16407;SDS011;8313;49.894;8.084;2022-12-29T10:01:51;1.80;;;1.70;;
16407;SDS011;8313;49.894;8.084;2022-12-29T10:04:43;2.10;;;1.50;;
16407;SDS011;8313;49.894;8.084;2022-12-29T10:12:49;1.00;;;0.90;;
16407;SDS011;8313;49.894;8.084;2022-12-29T10:23:52;0.80;;;0.80;;
16407;SDS011;8313;49.894;8.084;2022-12-29T10:26:28;2.50;;;0.80;;
16407;SDS011;8313;49.894;8.084;2022-12-29T10:29:01;1.20;;;1.07;;
16407;SDS011;8313;49.894;8.084;2022-12-29T10:31:37;1.27;;;1.00;;
16407;SDS011;8313;49.894;8.084;2022-12-29T10:34:26;1.50;;;1.00;;
16407;SDS011;8313;49.894;8.084;2022-12-29T10:36:57;4.50;;;3.87;;
16407;SDS011;8313;49.894;8.084;2022-12-29T10:39:36;23.37;;;15.30;;
16407;SDS011;8313;49.894;8.084;2022-12-29T10:44:56;20.50;;;10.33;;
16407;SDS011;8313;49.894;8.084;2022-12-29T10:47:29;41.93;;;20.27;;
16407;SDS011;8313;49.894;8.084;2022-12-29T10:50:02;65.47;;;32.33;;
16407;SDS011;8313;49.894;8.084;2022-12-29T10:52:28;77.93;;;39.60;;
16407;SDS011;8313;49.894;8.084;2022-12-29T10:55:04;50.20;;;28.33;;
16407;SDS011;8313;49.894;8.084;2022-12-29T10:57:43;26.20;;;16.00;;
16407;SDS011;8313;49.894;8.084;2022-12-29T11:00:13;12.80;;;8.80;;
16407;SDS011;8313;49.894;8.084;2022-12-29T11:08:33;3.17;;;1.07;;
16407;SDS011;8313;49.894;8.084;2022-12-29T11:11:05;1.90;;;0.83;;
16407;SDS011;8313;49.894;8.084;2022-12-29T11:13:33;3.90;;;0.77;;
16407;SDS011;8313;49.894;8.084;2022-12-29T11:16:11;1.53;;;1.00;;
16407;SDS011;8313;49.894;8.084;2022-12-29T11:18:37;3.53;;;1.13;;
16407;SDS011;8313;49.894;8.084;2022-12-29T11:21:06;2.37;;;1.03;;
16407;SDS011;8313;49.894;8.084;2022-12-29T11:24:03;0.97;;;0.87;;
16407;SDS011;8313;49.894;8.084;2022-12-29T11:26:31;2.73;;;1.17;;
16407;SDS011;8313;49.894;8.084;2022-12-29T11:34:43;2.40;;;2.17;;
16407;SDS011;8313;49.894;8.084;2022-12-29T11:37:12;3.30;;;1.63;;
16407;SDS011;8313;49.894;8.084;2022-12-29T11:39:56;3.50;;;2.50;;
16407;SDS011;8313;49.894;8.084;2022-12-29T11:45:24;2.00;;;0.93;;
16407;SDS011;8313;49.894;8.084;2022-12-29T11:47:52;1.20;;;1.00;;
16407;SDS011;8313;49.894;8.084;2022-12-29T11:50:25;1.67;;;1.10;;
16407;SDS011;8313;49.894;8.084;2022-12-29T11:53:05;0.63;;;0.63;;
16407;SDS011;8313;49.894;8.084;2022-12-29T11:55:40;3.30;;;1.50;;
16407;SDS011;8313;49.894;8.084;2022-12-29T11:58:15;3.67;;;2.60;;
16407;SDS011;8313;49.894;8.084;2022-12-29T12:00:41;3.57;;;2.83;;
16407;SDS011;8313;49.894;8.084;2022-12-29T12:03:17;5.43;;;4.00;;
16407;SDS011;8313;49.894;8.084;2022-12-29T12:05:57;14.00;;;9.47;;
16407;SDS011;8313;49.894;8.084;2022-12-29T12:08:37;25.13;;;14.33;;
16407;SDS011;8313;49.894;8.084;2022-12-29T12:13:44;28.97;;;17.70;;
16407;SDS011;8313;49.894;8.084;2022-12-29T12:16:27;22.73;;;13.70;;
16407;SDS011;8313;49.894;8.084;2022-12-29T12:21:50;8.57;;;5.90;;
16407;SDS011;8313;49.894;8.084;2022-12-29T12:24:43;3.23;;;2.93;;
16407;SDS011;8313;49.894;8.084;2022-12-29T12:35:14;3.53;;;2.10;;
16407;SDS011;8313;49.894;8.084;2022-12-29T12:37:58;3.23;;;2.00;;
16407;SDS011;8313;49.894;8.084;2022-12-29T12:51:30;2.60;;;1.03;;
16407;SDS011;8313;49.894;8.084;2022-12-29T13:07:21;17.57;;;11.20;;
16407;SDS011;8313;49.894;8.084;2022-12-29T13:10:24;8.03;;;7.23;;
16407;SDS011;8313;49.894;8.084;2022-12-29T13:13:21;12.27;;;7.70;;
16407;SDS011;8313;49.894;8.084;2022-12-29T13:16:03;11.63;;;7.43;;
16407;SDS011;8313;49.894;8.084;2022-12-29T13:18:56;15.47;;;10.87;;
16407;SDS011;8313;49.894;8.084;2022-12-29T13:21:51;17.43;;;10.77;;
16407;SDS011;8313;49.894;8.084;2022-12-29T13:30:04;2.90;;;2.23;;
16407;SDS011;8313;49.894;8.084;2022-12-29T13:37:53;2.73;;;2.53;;
16407;SDS011;8313;49.894;8.084;2022-12-29T13:40:25;7.80;;;3.00;;
16407;SDS011;8313;49.894;8.084;2022-12-29T13:42:53;5.07;;;2.90;;
16407;SDS011;8313;49.894;8.084;2022-12-29T13:45:22;8.43;;;3.37;;
16407;SDS011;8313;49.894;8.084;2022-12-29T13:47:54;6.10;;;3.53;;
16407;SDS011;8313;49.894;8.084;2022-12-29T13:50:39;4.10;;;2.00;;
16407;SDS011;8313;49.894;8.084;2022-12-29T14:04:00;1.17;;;1.07;;
16407;SDS011;8313;49.894;8.084;2022-12-29T14:06:34;1.13;;;0.90;;
16407;SDS011;8313;49.894;8.084;2022-12-29T14:09:06;2.40;;;0.97;;
16407;SDS011;8313;49.894;8.084;2022-12-29T14:12:00;2.43;;;0.97;;
16407;SDS011;8313;49.894;8.084;2022-12-29T14:14:27;3.80;;;1.13;;
16407;SDS011;8313;49.894;8.084;2022-12-29T14:16:57;1.47;;;1.20;;
16407;SDS011;8313;49.894;8.084;2022-12-29T14:19:36;1.03;;;0.70;;
16407;SDS011;8313;49.894;8.084;2022-12-29T14:22:08;6.73;;;1.27;;
16407;SDS011;8313;49.894;8.084;2022-12-29T14:37:27;5.03;;;1.33;;
16407;SDS011;8313;49.894;8.084;2022-12-29T14:40:39;4.27;;;1.70;;
16407;SDS011;8313;49.894;8.084;2022-12-29T14:42:44;6.60;;;5.47;;
16407;SDS011;8313;49.894;8.084;2022-12-29T14:47:40;3.60;;;2.30;;
16407;SDS011;8313;49.894;8.084;2022-12-29T14:52:52;2.43;;;2.23;;
16407;SDS011;8313;49.894;8.084;2022-12-29T14:55:30;2.13;;;2.03;;
16407;SDS011;8313;49.894;8.084;2022-12-29T14:58:05;4.03;;;1.37;;
16407;SDS011;8313;49.894;8.084;2022-12-29T15:00:37;1.50;;;1.10;;
16407;SDS011;8313;49.894;8.084;2022-12-29T15:05:48;1.83;;;1.67;;
16407;SDS011;8313;49.894;8.084;2022-12-29T15:08:25;2.43;;;1.27;;
16407;SDS011;8313;49.894;8.084;2022-12-29T15:10:54;5.60;;;1.20;;
16407;SDS011;8313;49.894;8.084;2022-12-29T15:13:25;4.43;;;0.97;;
16407;SDS011;8313;49.894;8.084;2022-12-29T15:16:02;2.10;;;1.00;;
16407;SDS011;8313;49.894;8.084;2022-12-29T15:18:29;3.43;;;1.17;;
16407;SDS011;8313;49.894;8.084;2022-12-29T15:21:06;2.53;;;0.97;;
16407;SDS011;8313;49.894;8.084;2022-12-29T15:23:35;4.40;;;1.00;;
16407;SDS011;8313;49.894;8.084;2022-12-29T15:26:03;2.10;;;1.07;;
16407;SDS011;8313;49.894;8.084;2022-12-29T15:28:38;9.13;;;1.50;;
16407;SDS011;8313;49.894;8.084;2022-12-29T15:31:13;3.97;;;1.40;;
16407;SDS011;8313;49.894;8.084;2022-12-29T15:34:09;1.47;;;1.10;;
16407;SDS011;8313;49.894;8.084;2022-12-29T15:36:37;7.87;;;2.00;;
16407;SDS011;8313;49.894;8.084;2022-12-29T15:41:53;4.87;;;2.13;;
16407;SDS011;8313;49.894;8.084;2022-12-29T15:44:39;5.17;;;1.90;;
16407;SDS011;8313;49.894;8.084;2022-12-29T15:47:17;4.10;;;1.70;;
16407;SDS011;8313;49.894;8.084;2022-12-29T15:49:43;3.37;;;1.27;;
16407;SDS011;8313;49.894;8.084;2022-12-29T15:52:17;4.20;;;1.50;;
16407;SDS011;8313;49.894;8.084;2022-12-29T15:54:46;3.77;;;1.60;;
16407;SDS011;8313;49.894;8.084;2022-12-29T15:57:22;3.20;;;2.27;;
16407;SDS011;8313;49.894;8.084;2022-12-29T15:59:51;6.70;;;2.80;;
16407;SDS011;8313;49.894;8.084;2022-12-29T16:02:18;2.20;;;1.40;;
16407;SDS011;8313;49.894;8.084;2022-12-29T16:04:45;2.60;;;1.33;;
16407;SDS011;8313;49.894;8.084;2022-12-29T16:07:29;3.17;;;2.20;;
16407;SDS011;8313;49.894;8.084;2022-12-29T16:09:57;7.57;;;3.90;;
16407;SDS011;8313;49.894;8.084;2022-12-29T16:12:26;7.23;;;4.50;;
16407;SDS011;8313;49.894;8.084;2022-12-29T16:17:24;24.43;;;11.30;;
16407;SDS011;8313;49.894;8.084;2022-12-29T16:20:03;35.23;;;15.33;;
16407;SDS011;8313;49.894;8.084;2022-12-29T16:22:39;40.57;;;18.73;;
16407;SDS011;8313;49.894;8.084;2022-12-29T16:25:41;34.30;;;18.30;;
16407;SDS011;8313;49.894;8.084;2022-12-29T16:28:02;23.00;;;12.23;;
16407;SDS011;8313;49.894;8.084;2022-12-29T16:30:42;12.73;;;7.47;;
16407;SDS011;8313;49.894;8.084;2022-12-29T16:33:28;7.80;;;5.63;;
16407;SDS011;8313;49.894;8.084;2022-12-29T16:36:26;3.73;;;3.00;;
16407;SDS011;8313;49.894;8.084;2022-12-29T16:41:49;2.73;;;2.10;;
16407;SDS011;8313;49.894;8.084;2022-12-29T16:46:55;10.20;;;6.33;;
16407;SDS011;8313;49.894;8.084;2022-12-29T16:49:29;33.53;;;16.70;;
16407;SDS011;8313;49.894;8.084;2022-12-29T16:51:56;39.00;;;22.80;;
16407;SDS011;8313;49.894;8.084;2022-12-29T16:54:26;26.93;;;15.80;;
16407;SDS011;8313;49.894;8.084;2022-12-29T16:57:01;30.20;;;18.03;;
16407;SDS011;8313;49.894;8.084;2022-12-29T17:01:57;31.00;;;14.47;;
16407;SDS011;8313;49.894;8.084;2022-12-29T17:04:25;20.33;;;11.57;;
16407;SDS011;8313;49.894;8.084;2022-12-29T17:06:51;8.47;;;5.70;;
16407;SDS011;8313;49.894;8.084;2022-12-29T17:09:24;4.37;;;3.63;;
16407;SDS011;8313;49.894;8.084;2022-12-29T17:11:52;5.93;;;5.33;;
16407;SDS011;8313;49.894;8.084;2022-12-29T17:19:45;3.20;;;2.70;;
16407;SDS011;8313;49.894;8.084;2022-12-29T17:22:17;3.70;;;2.87;;
16407;SDS011;8313;49.894;8.084;2022-12-29T17:24:45;10.70;;;3.37;;
16407;SDS011;8313;49.894;8.084;2022-12-29T17:27:19;3.30;;;2.80;;
16407;SDS011;8313;49.894;8.084;2022-12-29T17:29:49;4.67;;;2.50;;
16407;SDS011;8313;49.894;8.084;2022-12-29T17:32:15;3.77;;;1.63;;
16407;SDS011;8313;49.894;8.084;2022-12-29T17:34:41;2.87;;;1.17;;
16407;SDS011;8313;49.894;8.084;2022-12-29T17:37:20;5.70;;;2.20;;
16407;SDS011;8313;49.894;8.084;2022-12-29T17:39:54;5.47;;;3.50;;
16407;SDS011;8313;49.894;8.084;2022-12-29T17:42:19;9.47;;;6.50;;
16407;SDS011;8313;49.894;8.084;2022-12-29T17:44:45;8.90;;;5.90;;
16407;SDS011;8313;49.894;8.084;2022-12-29T17:47:11;8.53;;;5.73;;
16407;SDS011;8313;49.894;8.084;2022-12-29T17:49:37;6.40;;;5.20;;
16407;SDS011;8313;49.894;8.084;2022-12-29T17:52:03;6.10;;;4.07;;
16407;SDS011;8313;49.894;8.084;2022-12-29T17:54:29;9.23;;;3.93;;
16407;SDS011;8313;49.894;8.084;2022-12-29T17:56:56;5.10;;;3.30;;
16407;SDS011;8313;49.894;8.084;2022-12-29T17:59:22;4.07;;;2.33;;
16407;SDS011;8313;49.894;8.084;2022-12-29T18:01:47;4.10;;;2.60;;
16407;SDS011;8313;49.894;8.084;2022-12-29T18:04:15;6.37;;;3.73;;
16407;SDS011;8313;49.894;8.084;2022-12-29T18:06:42;9.73;;;4.60;;
16407;SDS011;8313;49.894;8.084;2022-12-29T18:09:09;23.53;;;9.07;;
16407;SDS011;8313;49.894;8.084;2022-12-29T18:11:38;42.80;;;17.27;;
16407;SDS011;8313;49.894;8.084;2022-12-29T18:14:12;118.40;;;42.57;;
16407;SDS011;8313;49.894;8.084;2022-12-29T18:16:39;102.60;;;39.83;;
16407;SDS011;8313;49.894;8.084;2022-12-29T18:19:04;64.97;;;24.47;;